Latest Weather Observations for Mornington Island Airport

IDQ60801

Issued at 3:31 am EST Tuesday 22 October 2019 (issued every 10 minutes, with the page automatically refreshed every 10 minutes)

About weather observations | Map of weather stations | Latest weather observations for QLD | Other Formats
Station Details ID: 029182 Name: MORNINGTON ISLAND AIRPORT Lat: -16.66 Lon: 139.17 Height: 9.52 m
Data from the previous 72 hours. | See also: Recent months at Mornington Island Airport
Date/Time
EST
Temp
°C
App
Temp
°C
Dew
Point
°C
Rel
Hum
%
Delta-T
°C
Wind Press
QNH
hPa
Press
MSL
hPa
Rain since
9am
mm
Dir  Spd
km/h
Gust
km/h
Spd
kts
Gust
kts
22/03:30am 24.0 27.9 21.1 84 1.9 WSW 2 7 1 4 1011.0 1010.9 0.0
22/03:00am 25.3 27.8 22.4 84 1.9 WSW 13 17 7 9 1010.7 1010.6 0.0
22/02:30am 25.4 27.7 22.7 85 1.8 WSW 15 22 8 12 1010.6 1010.5 0.0
22/02:00am 25.4 28.1 22.9 86 1.7 SW 13 20 7 11 1011.2 1011.1 0.0
22/01:30am 25.9 29.7 23.4 86 1.7 SW 9 15 5 8 1011.6 1011.5 0.0
22/01:00am 26.2 28.6 21.6 76 3.1 WSW 11 13 6 7 1011.7 1011.6 0.0
22/12:30am 26.2 28.6 21.6 76 3.1 WSW 11 13 6 7 1012.0 1011.9 0.0
22/12:00am 25.1 28.1 22.0 83 2.1 N 9 13 5 7 1012.1 1012.0 0.0
 
Date/Time
EST
Temp
°C
App
Temp
°C
Dew
Point
°C
Rel
Hum
%
Delta-T
°C
Wind Press
QNH
hPa
Press
MSL
hPa
Rain since
9am
mm
Dir  Spd
km/h
Gust
km/h
Spd
kts
Gust
kts
21/11:30pm 24.3 26.9 21.2 83 2.0 N 9 9 5 5 1012.2 1012.1 0.0
21/11:00pm 23.3 25.4 19.0 77 2.7 N 6 7 3 4 1012.3 1012.2 0.0
21/10:30pm 23.8 25.1 19.3 76 2.9 N 11 13 6 7 1012.3 1012.2 0.0
21/10:00pm 24.0 26.2 19.7 77 2.8 N 7 9 4 5 1012.3 1012.2 0.0
21/09:30pm 24.6 26.8 20.3 77 2.8 N 9 11 5 6 1012.2 1012.1 0.0
21/09:00pm 25.3 27.5 20.3 74 3.3 N 9 11 5 6 1012.2 1012.1 0.0
21/08:30pm 25.4 27.6 20.4 74 3.3 N 9 11 5 6 1012.1 1012.0 0.0
21/08:00pm 25.8 27.6 20.4 72 3.5 N 11 13 6 7 1011.9 1011.8 0.0
21/07:30pm 26.3 28.3 20.8 71 3.6 N 11 17 6 9 1011.9 1011.8 0.0
21/07:00pm 27.0 27.9 20.1 66 4.5 NNE 15 22 8 12 1011.7 1011.6 0.0
21/06:30pm 28.3 28.9 20.3 62 5.3 N 17 20 9 11 1011.4 1011.3 0.0
21/06:00pm 31.7 31.9 17.6 43 9.0 ENE 13 19 7 10 1011.0 1010.9 0.0
21/05:30pm 33.7 28.3 2.5 14 15.9 ESE 20 28 11 15 1010.9 1010.8 0.0
21/05:00pm 33.9 28.5 2.7 14 16.0 ESE 20 28 11 15 1011.0 1010.9 0.0
21/04:30pm 34.7 29.8 4.3 15 16.1 ESE 19 28 10 15 1011.1 1011.0 0.0
21/04:00pm 34.7 28.7 3.3 14 16.3 ESE 24 35 13 19 1011.1 1011.0 0.0
21/03:30pm 33.6 27.4 2.4 14 15.9 SE 24 35 13 19 1011.2 1011.1 0.0
21/03:00pm 33.7 26.7 -0.8 11 16.7 SE 26 35 14 19 1011.4 1011.3 0.0
21/02:30pm 33.5 27.7 4.2 16 15.3 SE 24 39 13 21 1011.6 1011.5 0.0
21/02:00pm 33.5 26.9 5.9 18 14.9 ESE 30 44 16 24 1011.9 1011.8 0.0
21/01:30pm 32.5 26.0 8.0 22 13.6 SE 32 44 17 24 1012.3 1012.2 0.0
21/01:00pm 32.6 24.5 3.5 16 15.0 SE 35 52 19 28 1012.8 1012.7 0.0
21/12:41pm 32.8 24.9 4.6 17 14.8 SE 35 54 19 29 1013.2 1013.1 0.0
21/12:30pm 32.5 23.0 1.6 14 15.4 SE 41 56 22 30 1013.4 1013.3 0.0
21/12:00pm 32.5 26.6 10.5 26 12.7 SSE 32 52 17 28 1013.6 1013.5 0.0
21/11:53am 32.5 26.5 8.7 23 13.3 SSE 30 52 16 28 1013.7 1013.6 0.0
21/11:30am 31.8 26.2 11.6 29 11.8 SSE 32 44 17 24 1013.8 1013.7 0.0
21/11:05am 31.3 25.1 9.5 26 12.3 SSE 32 54 17 29 1013.9 1013.8 0.0
21/11:00am 31.5 26.0 12.3 31 11.3 SE 33 46 18 25 1014.1 1014.0 0.0
21/10:42am 31.3 25.2 8.3 24 12.7 SE 30 50 16 27 1014.5 1014.4 0.0
21/10:30am 30.7 25.1 10.1 28 11.7 SSE 30 46 16 25 1014.5 1014.4 0.0
21/10:00am 30.6 24.4 9.5 27 11.9 SE 32 50 17 27 1014.7 1014.6 0.0
21/09:30am 29.7 24.1 10.3 30 11.0 SSE 30 48 16 26 1014.7 1014.6 0.0
21/09:13am 29.2 23.4 9.3 29 11.1 SSE 30 48 16 26 1014.7 1014.6 0.0
21/09:00am 29.4 23.9 9.0 28 11.3 SSE 28 44 15 24 1014.7 1014.6 -
21/08:49am 29.0 23.4 8.7 28 11.2 SSE 28 46 15 25 1014.7 1014.6 -
21/08:30am 29.0 23.0 8.7 28 11.2 SE 30 46 16 25 1014.7 1014.6 -
21/08:10am 28.9 23.1 8.0 27 11.4 SSE 28 50 15 27 1014.6 1014.5 -
21/08:00am 28.9 24.0 8.6 28 11.1 SSE 24 37 13 20 1014.5 1014.4 -
21/07:30am 28.6 23.7 9.8 31 10.5 SSE 26 39 14 21 1014.4 1014.3 -
21/07:00am 28.4 23.5 10.1 32 10.3 SE 26 35 14 19 1014.2 1014.1 -
21/06:30am 27.9 24.7 11.9 37 9.2 SSE 20 32 11 17 1013.9 1013.8 -
21/06:00am 27.9 25.3 13.1 40 8.7 SSE 19 33 10 18 1013.7 1013.6 -
21/05:30am 28.4 24.4 10.6 33 10.1 SSE 22 37 12 20 1013.2 1013.1 -
21/05:00am 28.5 24.8 11.6 35 9.7 SSE 22 39 12 21 1012.8 1012.7 -
21/04:30am 28.6 25.3 11.6 34 9.8 SSE 20 35 11 19 1012.4 1012.3 -
21/04:00am 28.7 25.7 12.6 37 9.4 SSE 20 35 11 19 1012.4 1012.3 -
21/03:30am 28.6 26.0 13.7 40 8.9 SSE 20 32 11 17 1012.3 1012.2 -
21/03:00am 29.4 26.2 11.9 34 10.2 SSE 20 30 11 16 1012.3 1012.2 -
21/02:30am 29.4 26.8 13.2 37 9.6 SSE 19 32 10 17 1012.5 1012.4 -
21/02:00am 28.7 27.2 16.3 47 7.7 SSE 19 24 10 13 1012.7 1012.6 -
21/01:30am 25.4 27.6 20.4 74 3.3 SSW 9 15 5 8 1013.0 1012.9 0.0
21/01:00am 25.1 28.9 22.8 87 1.6 WSW 7 11 4 6 1013.1 1013.0 0.0
21/12:30am 25.5 29.6 23.9 91 1.1 W 9 11 5 6 1013.1 1013.0 0.0
21/12:00am 25.7 30.6 24.7 94 0.7 W 7 11 4 6 1013.5 1013.4 0.0
 
Date/Time
EST
Temp
°C
App
Temp
°C
Dew
Point
°C
Rel
Hum
%
Delta-T
°C
Wind Press
QNH
hPa
Press
MSL
hPa
Rain since
9am
mm
Dir  Spd
km/h
Gust
km/h
Spd
kts
Gust
kts
20/11:30pm 24.3 28.4 23.3 94 0.7 WNW 7 9 4 5 1013.6 1013.5 0.0
20/11:00pm 23.7 28.3 21.8 89 1.3 CALM 0 0 0 0 1013.8 1013.7 0.0
20/10:30pm 24.2 27.4 21.7 86 1.7 WNW 7 7 4 4 1013.6 1013.5 0.0
20/10:00pm 24.8 29.8 22.5 87 1.5 CALM 0 0 0 0 1013.4 1013.3 0.0
20/09:30pm 26.0 30.7 22.7 82 2.2 WNW 2 6 1 3 1013.3 1013.2 0.0
20/09:00pm 27.0 31.1 23.9 83 2.1 NNW 9 13 5 7 1013.1 1013.0 0.0
20/08:30pm 26.6 30.2 22.4 78 2.8 NNW 7 9 4 5 1012.7 1012.6 0.0
20/08:00pm 26.8 30.6 22.8 79 2.7 NNW 7 9 4 5 1012.6 1012.5 0.0
20/07:30pm 27.5 31.0 22.9 76 3.1 N 9 11 5 6 1012.2 1012.1 0.0
20/07:00pm 28.0 31.5 22.9 74 3.5 N 9 13 5 7 1011.9 1011.8 0.0
20/06:30pm 29.1 31.7 22.6 68 4.4 N 13 17 7 9 1011.7 1011.6 0.0
20/06:00pm 30.0 31.3 21.7 61 5.6 NNW 17 22 9 12 1011.5 1011.4 0.0
20/05:52pm 31.0 33.8 22.3 60 5.9 SE 11 22 6 12 1011.3 1011.2 0.0
20/05:30pm 36.0 30.9 -1.8 9 18.3 SE 15 22 8 12 1011.4 1011.3 0.0
20/05:00pm 36.4 31.2 -0.1 10 18.2 SE 17 22 9 12 1011.5 1011.4 0.0
20/04:30pm 36.9 31.7 0.3 10 18.4 SE 17 22 9 12 1011.6 1011.5 0.0
20/04:00pm 36.7 31.1 0.1 10 18.3 ESE 19 28 10 15 1011.9 1011.8 0.0
20/03:30pm 35.9 30.1 4.2 14 16.8 SE 24 33 13 18 1012.2 1012.1 0.0
20/03:00pm 35.4 30.8 9.7 21 14.8 SE 24 35 13 19 1012.7 1012.6 0.0
20/02:30pm 34.5 31.5 14.9 31 12.2 SE 24 32 13 17 1013.3 1013.2 0.0
20/02:00pm 33.6 31.3 15.6 34 11.3 SE 22 33 12 18 1013.6 1013.5 0.0
20/01:30pm 32.7 32.4 19.6 46 8.6 SSE 20 30 11 16 1013.9 1013.8 0.0
20/01:00pm 32.7 32.4 19.6 46 8.6 SE 20 28 11 15 1014.3 1014.2 0.0
20/12:30pm 33.3 30.7 15.8 35 11.0 SE 24 33 13 18 1014.5 1014.4 0.0
20/12:00pm 32.7 30.7 17.3 39 9.8 SE 24 32 13 17 1014.9 1014.8 0.0
20/11:30am 32.1 29.5 16.8 40 9.7 SE 26 35 14 19 1015.5 1015.4 0.0
20/11:00am 31.7 28.7 16.8 40 9.4 SE 28 41 15 22 1015.9 1015.8 0.0
20/10:30am 31.9 28.7 15.4 37 10.2 SE 26 39 14 21 1016.0 1015.9 0.0
20/10:00am 31.8 27.8 14.0 34 10.8 SE 28 37 15 20 1016.1 1016.0 0.0
20/09:30am 31.9 27.0 13.6 32 11.0 SE 32 46 17 25 1016.1 1016.0 0.0
20/09:00am 31.6 27.3 14.3 35 10.5 SE 30 44 16 24 1016.0 1015.9 -
20/08:30am 31.5 26.8 13.3 33 10.9 SE 30 46 16 25 1015.7 1015.6 -
20/08:08am 31.2 25.9 12.5 31 11.1 SE 32 50 17 27 1015.5 1015.4 -
20/08:00am 31.1 25.4 11.0 29 11.6 SE 32 48 17 26 1015.5 1015.4 -
20/07:30am 30.7 26.1 13.5 35 10.3 SE 30 44 16 24 1015.0 1014.9 -
20/07:00am 30.0 27.8 14.9 39 9.2 SE 20 30 11 16 1014.7 1014.6 -
20/06:30am 29.8 26.7 13.5 36 9.7 SE 22 35 12 19 1014.2 1014.1 -
20/06:00am 29.7 26.8 13.9 38 9.5 SE 22 30 12 16 1013.8 1013.7 -
20/05:30am 29.7 27.0 14.7 40 9.1 SE 22 33 12 18 1013.2 1013.1 -
20/05:00am 29.5 28.4 17.3 47 7.7 SE 19 26 10 14 1012.8 1012.7 -
20/04:30am 29.9 28.7 17.0 45 8.1 SSE 19 28 10 15 1012.5 1012.4 -
20/04:00am 30.5 27.9 15.0 39 9.5 SE 22 35 12 19 1012.2 1012.1 -
20/03:30am 30.3 28.2 15.2 40 9.3 SE 20 24 11 13 1012.1 1012.0 -
20/03:00am 29.5 28.4 16.3 45 8.2 SE 17 26 9 14 1012.1 1012.0 0.0
20/02:30am 26.6 27.5 19.2 64 4.8 SE 13 19 7 10 1012.4 1012.3 -
20/02:00am 24.0 27.1 21.5 86 1.7 SSW 7 11 4 6 1012.6 1012.5 -
20/01:30am 24.7 27.9 22.4 87 1.5 WSW 9 11 5 6 1012.9 1012.8 -
20/01:00am 26.0 31.3 25.3 96 0.5 NW 7 9 4 5 1013.0 1012.9 -
20/12:30am 26.1 31.7 25.4 96 0.5 NW 6 7 3 4 1013.2 1013.1 -
20/12:00am 26.4 32.2 25.7 96 0.5 NW 6 9 3 5 1013.5 1013.4 -
 
Date/Time
EST
Temp
°C
App
Temp
°C
Dew
Point
°C
Rel
Hum
%
Delta-T
°C
Wind Press
QNH
hPa
Press
MSL
hPa
Rain since
9am
mm
Dir  Spd
km/h
Gust
km/h
Spd
kts
Gust
kts
19/11:30pm 26.5 32.3 25.8 96 0.5 NW 6 9 3 5 1013.6 1013.5 -
19/11:00pm 26.5 31.8 25.8 96 0.5 NW 9 9 5 5 1013.7 1013.6 -
19/10:30pm 25.0 29.4 23.4 91 1.1 NNW 6 7 3 4 1013.6 1013.5 -
19/10:00pm 25.5 30.4 24.3 93 0.8 NNW 6 7 3 4 1013.5 1013.4 -
19/09:30pm 25.6 30.0 23.5 88 1.4 NNW 6 7 3 4 1013.3 1013.2 -
19/09:00pm 26.5 31.8 24.9 91 1.1 NNW 6 7 3 4 1013.2 1013.1 0.0
19/08:30pm 26.7 31.3 24.7 89 1.4 NNW 9 11 5 6 1012.9 1012.8 -
19/08:00pm 26.9 33.0 24.5 87 1.7 CALM 0 0 0 0 1012.8 1012.7 -
19/07:30pm 27.3 32.4 24.7 86 1.8 NNW 6 9 3 5 1012.5 1012.4 -
19/07:00pm 28.1 33.0 24.7 82 2.4 NNW 7 11 4 6 1012.2 1012.1 -
19/06:30pm 29.4 33.9 25.2 78 3.0 NNW 11 13 6 7 1012.0 1011.9 -
19/06:00pm 30.7 34.5 25.3 73 3.8 NW 15 19 8 10 1011.8 1011.7 -
19/05:47pm 31.6 34.7 24.2 65 5.2 NW 15 19 8 10 1011.7 1011.6 -
19/05:30pm 36.6 33.7 4.8 14 17.1 SE 9 15 5 8 1011.8 1011.7 -
19/05:00pm 36.8 32.6 5.9 15 16.9 ESE 17 22 9 12 1011.8 1011.7 -
19/04:30pm 37.7 33.5 5.6 14 17.6 ESE 17 26 9 14 1011.9 1011.8 -
19/04:00pm 37.4 31.9 2.0 11 18.3 ESE 20 32 11 17 1012.1 1012.0 -
19/03:30pm 37.2 30.3 -2.5 8 19.1 ESE 24 35 13 19 1012.3 1012.2 -
19/03:00pm 37.1 31.4 3.0 12 17.9 SE 22 33 12 18 1012.7 1012.6 -
19/02:30pm 36.7 31.4 6.8 16 16.6 SE 24 35 13 19 1013.0 1012.9 0.0
19/02:00pm 35.7 30.2 9.3 20 15.2 SE 28 35 15 19 1013.5 1013.4 0.0
19/01:30pm 35.3 31.3 14.0 28 13.1 SE 28 41 15 22 1013.9 1013.8 0.0
19/01:00pm 34.5 32.5 16.4 34 11.5 SE 22 35 12 19 1014.3 1014.2 0.0
19/12:30pm 34.6 31.8 16.4 33 11.5 SE 26 37 14 20 1014.7 1014.6 0.0
19/12:00pm 35.0 31.1 14.3 29 12.8 SE 28 39 15 21 1014.8 1014.7 0.0
19/11:30am 32.9 31.7 17.5 39 9.9 SSE 20 32 11 17 1015.3 1015.2 0.0
19/11:00am 32.7 33.1 19.9 46 8.5 SSE 17 28 9 15 1015.8 1015.7 0.0
19/10:30am 32.3 33.0 21.5 53 7.3 SSE 20 30 11 16 1016.0 1015.9 0.0
19/10:00am 31.1 31.4 20.4 53 7.1 SSE 19 28 10 15 1016.3 1016.2 0.0
19/09:30am 30.2 33.6 23.4 67 4.7 WSW 11 15 6 8 1016.3 1016.2 0.0
19/09:00am 29.0 32.3 23.9 74 3.5 WSW 13 19 7 10 1016.2 1016.1 0.0
19/08:30am 28.6 32.1 24.8 80 2.7 SW 15 20 8 11 1016.1 1016.0 0.0
19/08:00am 28.2 31.7 24.8 82 2.4 WSW 15 20 8 11 1015.9 1015.8 0.0
19/07:30am 27.6 31.3 24.6 84 2.1 WSW 13 17 7 9 1015.5 1015.4 0.0
19/07:23am 27.4 31.2 24.7 85 1.9 W 13 20 7 11 1015.5 1015.4 0.0
19/07:00am 27.0 31.5 24.6 87 1.7 W 9 15 5 8 1015.4 1015.3 0.0
19/06:30am 26.6 30.7 24.6 89 1.4 W 11 13 6 7 1015.3 1015.2 0.0
19/06:06am 26.5 30.7 24.7 90 1.3 W 11 15 6 8 1015.2 1015.1 0.0
19/06:00am 26.4 30.5 24.6 90 1.2 W 11 15 6 8 1014.9 1014.8 0.0
19/05:30am 26.3 29.6 24.5 90 1.2 W 15 17 8 9 1014.4 1014.3 0.0
19/05:00am 26.5 30.1 24.3 88 1.5 WNW 13 17 7 9 1014.3 1014.2 0.0
19/04:30am 26.9 29.9 24.7 88 1.5 W 17 20 9 11 1013.8 1013.7 0.0
19/04:01am 26.9 29.2 24.5 87 1.7 W 20 26 11 14 1013.5 1013.4 0.0
19/04:00am 26.9 29.2 24.4 86 1.7 W 20 26 11 14 1013.5 1013.4 0.0

Other formats

Comma delimited format used in spreadsheet applications
http://www.bom.gov.au/fwo/IDQ60801/IDQ60801.94254.axf

JavaScript Object Notation format (JSON) in row-major order
http://www.bom.gov.au/fwo/IDQ60801/IDQ60801.94254.json

Data quality

Most of these data are generated automatically and are frequently updated. Quality checks on data are not normally performed. It is possible for incorrect values to appear. Refer to information at About Latest Weather Observations and please check the disclaimer before using these data.